• Join FlightAware (Why Join?)
  • Login
  • US Flag 
09:39AM EDT


 

Airport Tracker/Info


-or-


 

Live Flight TrackerFlight Track Log ✈ TCF3494 ✈ 11-Jun-2013 ✈ KORD - KLGA

Flight Track Log - Related Links

Times and Time Zones

All times are in EDT time to prevent confusion due to time zone crossing. See the TCF3494 flight status page for this flight to view local times or setup timezone preferences in your user account.

Time Position Orientation Groundspeed Altitude Reporting Facility
EDT Latitude Longitude Course Direction KTS MPH feet Rate Location/Type
08:17PM 41.9167 -87.8667 134° Southeast 203 234 2,700  Level Chicago TRACON
08:17PM 41.9006 -87.8439 134° Southeast 185 213 3,700 2,400 Climbing Chicago Center
08:19PM 41.8511 -87.7728 133° Southeast 242 278 6,100 2,220 Climbing Chicago Center
08:20PM 41.8072 -87.6831 123° Southeast 291 335 8,300 2,400 Climbing Chicago Center
08:21PM 41.8306 -87.5736 74° East 304 350 11,100 2,460 Climbing Chicago Center
08:22PM 41.8569 -87.4583 73° East 322 371 13,500 2,220 Climbing Chicago Center
08:23PM 41.8842 -87.3364 73° East 339 390 15,800 2,460 Climbing Chicago Center
08:24PM 41.9178 -87.1867 73° East 351 404 18,700 2,460 Climbing Chicago Center
08:25PM 41.9453 -87.0556 74° East 364 419 20,900 1,920 Climbing Chicago Center
08:26PM 41.9475 -86.9114 89° East 387 445 22,700 960 Climbing Chicago Center
08:27PM 41.9483 -86.7536 90° East 425 489 23,000 960 Climbing Chicago Center
08:28PM 41.9517 -86.5594 89° East 464 534 24,700 1,500 Climbing Chicago Center
08:29PM 41.9536 -86.3839 89° East 468 539 26,200 1,380 Climbing Chicago Center
08:30PM 41.9547 -86.2069 89° East 475 547 27,600 1,440 Climbing Chicago Center
08:31PM 41.9378 -86.0292 97° East 479 551 29,200 1,440 Climbing Chicago Center
08:32PM 41.9222 -85.8533 97° East 475 547 30,600 1,140 Climbing Chicago Center
08:33PM 41.9053 -85.6761 97° East 477 549 31,600 1,020 Climbing Chicago Center
08:34PM 41.8850 -85.4564 97° East 488 562 32,800 1,020 Climbing Chicago Center
08:35PM 41.8675 -85.2733 97° East 490 564 33,800 780 Climbing Chicago Center
08:36PM 41.8483 -85.0958 98° East 479 551 34,500 420 Climbing Chicago Center
08:37PM 41.8297 -84.9128 98° East 489 563 34,700 -240 Climbing Chicago Center
08:38PM 41.8089 -84.7197 98° East 518 596 34,100 -600 Descending Chicago Center
08:39PM 41.7886 -84.5269 98° East 521 600 33,500 -660 Descending Chicago Center
08:40PM 41.7825 -84.4403 95° East 508 585 33,200 -720 Descending Cleveland Center
08:41PM 41.7747 -84.2308 93° East 514 592 32,500 -660 Descending Cleveland Center
08:42PM 41.7739 -84.0553 90° East 514 592 31,900 -660 Descending Cleveland Center
08:43PM 41.7714 -83.8631 91° East 521 600 31,200 -480 Descending Cleveland Center
08:44PM 41.7703 -83.6681 90° East 516 594 31,000 -120 Descending Cleveland Center
08:45PM 41.7611 -83.4700 93° East 521 600 31,000  Level Cleveland Center
08:46PM 41.7428 -83.2769 97° East 521 600 31,000  Level Cleveland Center
08:47PM 41.7222 -83.0786 98° East 521 600 31,000  Level Cleveland Center
08:48PM 41.7033 -82.8833 97° East 521 600 31,000  Level Cleveland Center
08:49PM 41.6822 -82.6878 98° East 521 600 31,000  Level Cleveland Center
08:50PM 41.6628 -82.4897 97° East 526 605 31,000  Level Cleveland Center
08:51PM 41.6428 -82.2947 98° East 526 605 31,000  Level Cleveland Center
08:52PM 41.6225 -82.1025 98° East 526 605 31,000  Level Cleveland Center
08:53PM 41.6022 -81.9050 98° East 526 605 31,000  Level Cleveland Center
08:54PM 41.5792 -81.7100 99° East 526 605 31,000  Level Cleveland Center
08:55PM 41.5561 -81.4961 98° East 531 611 31,000  Level Cleveland Center
08:56PM 41.5325 -81.2961 99° East 536 617 31,000  Level Cleveland Center
08:57PM 41.5106 -81.0989 98° East 543 625 31,000  Level Cleveland Center
08:58PM 41.4925 -80.9019 97° East 543 625 31,000  Level Cleveland Center
08:59PM 41.4764 -80.7050 96° East 543 625 31,000  Level Cleveland Center
09:00PM 41.4575 -80.5056 97° East 543 625 31,000  Level Cleveland Center
09:01PM 41.4406 -80.3089 96° East 537 618 31,000  Level Cleveland Center
09:02PM 41.4211 -80.1153 98° East 537 618 31,000  Level Cleveland Center
09:03PM 41.4014 -79.9214 98° East 537 618 31,000  Level Cleveland Center
09:04PM 41.3836 -79.7281 97° East 532 612 31,000  Level Cleveland Center
09:05PM 41.3631 -79.5264 98° East 538 619 31,000  Level Cleveland Center
09:06PM 41.3444 -79.3303 97° East 538 619 31,000  Level Cleveland Center
09:07PM 41.3233 -79.1400 98° East 538 619 31,000  Level Cleveland Center
09:08PM 41.3019 -78.9414 98° East 538 619 31,000  Level Cleveland Center
09:09PM 41.2847 -78.7650 97° East 538 619 31,000  Level Cleveland Center
09:10PM 41.2628 -78.5722 99° East 538 619 31,000  Level Cleveland Center
09:11PM 41.2317 -78.2839 98° East 532 612 31,000  Level New York Center
09:12PM 41.2122 -78.1244 99° East 532 612 31,000  Level New York Center
09:13PM 41.1856 -77.9147 100° East 532 612 31,000  Level New York Center
09:14PM 41.1617 -77.7219 99° East 527 606 31,000  Level New York Center
09:15PM 41.1347 -77.5014 99° East 540 621 31,000  Level New York Center
09:16PM 41.1081 -77.3086 100° East 540 621 31,000 -540 Level New York Center
09:17PM 41.0831 -77.1164 100° East 535 616 30,000 -1,680 Descending New York Center
09:18PM 41.0556 -76.9239 101° East 529 609 27,700 -2,340 Descending New York Center
09:19PM 41.0300 -76.7344 100° East 529 609 25,400 -2,040 Descending New York Center
09:20PM 41.0017 -76.5889 104° East 529 609 23,600 -2,280 Descending New York Center
09:21PM 40.9494 -76.3756 108° East 516 594 20,900 -2,400 Descending New York Center
09:22PM 40.9169 -76.2247 106° East 489 563 18,900 -2,040 Descending New York Center
09:23PM 40.8764 -76.0622 108° East 471 542 16,800 -2,220 Descending New York Center
09:24PM 40.8361 -75.8917 107° East 451 519 14,500 -1,980 Descending New York Center
09:25PM 40.7986 -75.7408 108° East 439 505 13,000 -720 Descending New York Center
09:26PM 40.7631 -75.5958 108° East 427 491 13,100  Climbing New York Center
09:27PM 40.7289 -75.4592 108° East 427 491 13,000 -60 Descending New York Center
09:28PM 40.6992 -75.3122 105° East 427 491 13,000 -540 Level New York Center
09:29PM 40.6617 -75.1508 107° East 421 484 12,000 -1,200 Descending New York Center
09:30PM 40.5925 -75.0481 132° Southeast 413 475 10,600 -1,020 Descending New York Center
09:31PM 40.5408 -74.9167 117° Southeast 413 475 10,000 -300 Descending New York Center
09:32PM 40.4961 -74.7664 111° Southeast 399 459 10,000  Level New York Center
09:33PM 40.4544 -74.6358 113° Southeast 399 459 10,000  Level New York Center
09:34PM 40.4442 -74.5072 96° East 389 448 10,000 -240 Level New York Center
09:35PM 40.4667 -74.3833 77° East 314 361 9,600 -720 Descending New York TRACON
09:36PM 40.5000 -74.2833 66° East 297 342 8,600 -1,020 Descending New York TRACON
09:37PM 40.5333 -74.1667 69° East 272 313 7,500 -1,020 Descending New York TRACON
09:38PM 40.5500 -74.0833 75° East 252 290 6,500 -1,080 Descending New York TRACON
09:39PM 40.5833 -74.0333 49° Northeast 210 242 5,400 -1,080 Descending New York TRACON
09:40PM 40.6333 -74.0000 27° Northeast 192 221 4,400 -960 Descending New York TRACON
09:41PM 40.6833 -73.9500 37° Northeast 162 186 3,400 -900 Descending New York TRACON
09:42PM 40.7167 -73.9167 37° Northeast 169 194 2,600 -840 Descending New York TRACON
09:43PM 40.7333 -73.8667 66° East 179 206 1,800 -900 Descending New York TRACON